createdAt,value
2023-03-31T00:01:21.888Z,62.32
2023-03-31T00:03:49.906Z,62.01
2023-03-31T00:06:19.388Z,62.50
2023-03-31T00:08:51.312Z,62.88
2023-03-31T00:11:20.021Z,62.23
2023-03-31T00:13:49.499Z,63.27
2023-03-31T00:16:17.389Z,62.79
2023-03-31T00:18:47.485Z,62.93
2023-03-31T00:21:25.534Z,64.26
2023-03-31T00:23:54.912Z,63.32
2023-03-31T00:26:23.137Z,63.19
2023-03-31T00:28:52.316Z,63.58
2023-03-31T00:31:20.863Z,63.49
2023-03-31T00:33:48.856Z,63.42
2023-03-31T00:36:21.060Z,63.19
2023-03-31T00:38:49.246Z,63.32
2023-03-31T00:41:17.107Z,63.54
2023-03-31T00:44:08.289Z,63.60
2023-03-31T00:46:40.894Z,63.07
2023-03-31T00:49:16.615Z,62.58
2023-03-31T00:51:45.984Z,62.89
2023-03-31T00:54:15.345Z,62.81
2023-03-31T00:56:48.146Z,62.91
2023-03-31T00:59:18.838Z,63.03
2023-03-31T01:01:50.471Z,63.05
2023-03-31T01:04:22.539Z,62.29
2023-03-31T01:07:00.839Z,62.87
2023-03-31T01:09:35.077Z,62.62
2023-03-31T01:12:05.725Z,62.57
2023-03-31T01:14:35.643Z,62.30
2023-03-31T01:17:05.297Z,62.73
2023-03-31T01:19:49.664Z,63.30
2023-03-31T01:22:46.918Z,62.17
2023-03-31T01:26:10.797Z,63.85
2023-03-31T01:28:42.358Z,65.70
2023-03-31T01:31:36.507Z,67.68
2023-03-31T01:34:41.547Z,67.40
2023-03-31T01:37:57.333Z,69.65
2023-03-31T01:40:51.215Z,71.09
2023-03-31T01:43:24.392Z,68.75
2023-03-31T01:45:59.117Z,70.73
2023-03-31T01:48:36.785Z,70.35
2023-03-31T01:51:08.570Z,69.21
2023-03-31T01:53:46.253Z,69.19
2023-03-31T01:56:22.400Z,67.94
2023-03-31T01:58:55.390Z,67.58
2023-03-31T02:01:31.331Z,68.04
2023-03-31T02:04:04.681Z,68.95
2023-03-31T02:06:40.331Z,69.58
2023-03-31T02:09:13.206Z,69.34
2023-03-31T02:11:44.560Z,69.26
2023-03-31T02:14:18.719Z,69.49
2023-03-31T02:16:50.155Z,70.35
2023-03-31T02:19:20.143Z,70.92
2023-03-31T02:21:49.645Z,70.46
2023-03-31T02:24:20.786Z,71.27
2023-03-31T02:26:56.373Z,71.82
2023-03-31T02:29:24.517Z,71.27
2023-03-31T02:31:58.660Z,71.06
2023-03-31T02:34:27.278Z,71.13
2023-03-31T02:36:56.682Z,71.85
2023-03-31T02:39:29.261Z,71.89
2023-03-31T02:41:58.657Z,71.99
2023-03-31T02:44:26.646Z,71.61
2023-03-31T02:46:55.280Z,70.91
2023-03-31T02:49:23.504Z,72.02
2023-03-31T02:52:16.054Z,73.65
2023-03-31T02:55:17.147Z,73.30
2023-03-31T02:58:18.224Z,73.35
2023-03-31T03:01:01.916Z,75.39
2023-03-31T03:03:42.995Z,74.56
2023-03-31T03:06:23.618Z,74.45
2023-03-31T03:09:24.650Z,74.68
2023-03-31T03:12:00.891Z,75.72
2023-03-31T03:14:35.744Z,75.75
2023-03-31T03:17:08.809Z,75.16
2023-03-31T03:19:36.620Z,75.40
2023-03-31T03:22:06.006Z,75.18
2023-03-31T03:24:34.684Z,75.85
2023-03-31T03:27:02.570Z,74.66
2023-03-31T03:29:31.918Z,75.12
2023-03-31T03:31:59.668Z,74.10
2023-03-31T03:34:27.550Z,73.79
2023-03-31T03:36:55.290Z,73.95
2023-03-31T03:39:23.174Z,74.41
2023-03-31T03:41:50.935Z,74.60
2023-03-31T03:44:18.773Z,73.71
2023-03-31T03:46:48.229Z,74.93
2023-03-31T03:49:16.086Z,73.34
2023-03-31T03:51:43.928Z,74.16
2023-03-31T03:54:11.652Z,72.60
2023-03-31T03:56:39.635Z,74.19
2023-03-31T03:59:07.375Z,74.09
2023-03-31T04:01:36.020Z,74.28
2023-03-31T04:04:14.454Z,75.52
2023-03-31T04:06:42.411Z,75.27
2023-03-31T04:09:10.605Z,73.56
2023-03-31T04:11:38.468Z,73.05
2023-03-31T04:14:06.380Z,73.20
2023-03-31T04:16:34.563Z,74.35
2023-03-31T04:19:04.600Z,74.83
2023-03-31T04:21:34.931Z,73.65
2023-03-31T04:24:04.675Z,73.91
2023-03-31T04:26:42.784Z,73.65
2023-03-31T04:29:12.767Z,74.42
2023-03-31T04:31:42.796Z,74.29
2023-03-31T04:34:13.539Z,74.85
2023-03-31T04:36:47.003Z,74.35
2023-03-31T04:39:16.391Z,73.83
2023-03-31T04:41:44.219Z,74.15
2023-03-31T04:44:12.195Z,73.27
2023-03-31T04:46:40.137Z,73.92
2023-03-31T04:49:07.939Z,74.22
2023-03-31T04:51:35.758Z,74.66
2023-03-31T04:54:05.085Z,73.47
2023-03-31T04:56:32.891Z,72.82
2023-03-31T04:59:00.748Z,73.05
2023-03-31T05:01:28.630Z,73.29
2023-03-31T05:03:56.442Z,74.22
2023-03-31T05:06:24.285Z,73.18
2023-03-31T05:08:52.080Z,73.83
2023-03-31T05:11:21.288Z,74.15
2023-03-31T05:13:49.042Z,74.38
2023-03-31T05:16:17.454Z,75.43
2023-03-31T05:18:46.294Z,76.28
2023-03-31T05:21:15.899Z,76.71
2023-03-31T05:23:44.238Z,75.97
2023-03-31T05:26:12.205Z,76.57
2023-03-31T05:28:41.896Z,77.23
2023-03-31T05:31:11.183Z,75.04
2023-03-31T05:33:41.536Z,72.74
2023-03-31T05:36:11.139Z,72.21
2023-03-31T05:38:39.218Z,74.64
2023-03-31T05:41:09.223Z,73.72
2023-03-31T05:43:37.689Z,72.60
2023-03-31T05:46:08.004Z,73.59
2023-03-31T05:48:38.082Z,72.71
2023-03-31T05:51:06.547Z,71.50
2023-03-31T05:53:34.977Z,72.33
2023-03-31T05:56:05.365Z,71.83
2023-03-31T05:58:35.237Z,71.41
2023-03-31T06:01:07.361Z,70.49
2023-03-31T06:03:35.801Z,70.04
2023-03-31T06:06:05.252Z,69.83
2023-03-31T06:08:33.129Z,70.52
2023-03-31T06:11:01.079Z,69.85
2023-03-31T06:13:28.863Z,69.91
2023-03-31T06:15:57.309Z,69.57
2023-03-31T06:18:29.160Z,68.78
2023-03-31T06:20:57.248Z,68.42
2023-03-31T06:23:26.088Z,68.85
2023-03-31T06:25:54.591Z,68.47
2023-03-31T06:28:22.794Z,68.77
2023-03-31T06:30:50.576Z,67.74
2023-03-31T06:33:18.411Z,68.12
2023-03-31T06:35:47.615Z,66.93
2023-03-31T06:38:15.415Z,66.48
2023-03-31T06:40:43.464Z,67.70
2023-03-31T06:43:11.229Z,69.34
2023-03-31T06:45:39.050Z,69.20
2023-03-31T06:48:07.777Z,68.60
2023-03-31T06:50:38.112Z,69.84
2023-03-31T06:53:07.262Z,69.92
2023-03-31T06:55:35.529Z,69.82
2023-03-31T06:58:03.390Z,71.53
2023-03-31T07:00:31.619Z,71.07
2023-03-31T07:02:59.629Z,69.73
2023-03-31T07:05:28.717Z,70.56
2023-03-31T07:07:57.513Z,68.98
2023-03-31T07:10:29.803Z,69.89
2023-03-31T07:12:57.728Z,70.10
2023-03-31T07:15:28.226Z,69.61
2023-03-31T07:18:02.447Z,71.83
2023-03-31T07:20:32.681Z,72.41
2023-03-31T07:23:00.570Z,72.12
2023-03-31T07:25:29.708Z,71.51
2023-03-31T07:27:57.524Z,70.98
2023-03-31T07:30:25.357Z,72.46
2023-03-31T07:32:54.694Z,71.42
2023-03-31T07:35:23.298Z,71.38
2023-03-31T07:37:52.319Z,71.44
2023-03-31T07:40:23.512Z,70.92
2023-03-31T07:42:53.274Z,70.55
2023-03-31T07:45:22.251Z,71.35
2023-03-31T07:47:50.747Z,72.29
2023-03-31T07:50:19.135Z,72.08
2023-03-31T07:52:48.310Z,72.92
2023-03-31T07:55:16.555Z,71.96
2023-03-31T07:57:46.269Z,71.16
2023-03-31T08:00:17.797Z,71.26
2023-03-31T08:02:45.793Z,70.69
2023-03-31T08:05:16.348Z,69.55
2023-03-31T08:07:46.731Z,70.58
2023-03-31T08:10:17.536Z,70.38
2023-03-31T08:12:45.625Z,69.67
2023-03-31T08:15:15.501Z,70.52
2023-03-31T08:17:43.483Z,71.91
2023-03-31T08:20:12.476Z,69.90
2023-03-31T08:22:41.514Z,70.83
2023-03-31T08:25:10.404Z,69.53
2023-03-31T08:27:40.101Z,68.42
2023-03-31T08:30:09.823Z,68.65
2023-03-31T08:32:39.284Z,67.98
2023-03-31T08:35:08.476Z,67.19
2023-03-31T08:37:36.328Z,67.56
2023-03-31T08:40:05.745Z,65.86
2023-03-31T08:42:38.822Z,67.81
2023-03-31T08:45:22.085Z,67.53
2023-03-31T08:47:54.892Z,65.92
2023-03-31T08:50:27.152Z,64.79
2023-03-31T08:53:01.234Z,64.82
2023-03-31T08:55:35.889Z,63.87
2023-03-31T08:58:10.704Z,63.41
2023-03-31T09:00:44.977Z,63.66
2023-03-31T09:03:19.767Z,63.59
2023-03-31T09:06:00.799Z,61.64
2023-03-31T09:08:43.088Z,61.00
2023-03-31T09:11:31.244Z,62.54
2023-03-31T09:14:32.374Z,61.50
2023-03-31T09:17:14.231Z,61.49
2023-03-31T09:19:50.045Z,61.32
2023-03-31T09:22:23.408Z,60.34
2023-03-31T09:24:56.869Z,59.52
2023-03-31T09:27:31.275Z,60.64
2023-03-31T09:30:04.458Z,60.94
2023-03-31T09:32:34.315Z,59.93
2023-03-31T09:35:16.943Z,57.77
2023-03-31T09:37:45.229Z,57.66
2023-03-31T09:40:17.648Z,57.79
2023-03-31T09:42:46.450Z,58.63
2023-03-31T09:45:19.090Z,56.69
2023-03-31T09:47:51.284Z,59.40
2023-03-31T09:50:25.389Z,59.04
2023-03-31T09:52:56.261Z,58.26
2023-03-31T09:55:38.783Z,57.94
2023-03-31T09:58:09.055Z,57.88
2023-03-31T10:00:37.424Z,58.10
2023-03-31T10:03:07.837Z,58.93
2023-03-31T10:05:40.044Z,58.21
2023-03-31T10:08:39.141Z,60.77
2023-03-31T10:11:13.235Z,58.70
2023-03-31T10:13:49.543Z,58.85
2023-03-31T10:16:23.866Z,59.45
2023-03-31T10:18:51.680Z,58.18
2023-03-31T10:21:27.033Z,58.69
2023-03-31T10:23:56.246Z,58.58
2023-03-31T10:26:27.619Z,57.33
2023-03-31T10:28:56.129Z,57.07
2023-03-31T10:31:27.763Z,56.32
2023-03-31T10:33:58.372Z,57.12
2023-03-31T10:36:30.199Z,55.99
2023-03-31T10:38:58.912Z,55.26
2023-03-31T10:41:29.422Z,55.50
2023-03-31T10:43:59.055Z,56.20
2023-03-31T10:46:42.785Z,56.65
2023-03-31T10:49:17.290Z,55.36
2023-03-31T10:51:54.553Z,56.01
2023-03-31T10:54:22.385Z,56.87
2023-03-31T10:56:54.266Z,57.29
2023-03-31T10:59:37.526Z,58.48
2023-03-31T11:02:24.027Z,56.56
2023-03-31T11:05:06.307Z,56.71
2023-03-31T11:07:51.284Z,56.90
2023-03-31T11:10:41.820Z,55.35
2023-03-31T11:13:17.252Z,54.40
2023-03-31T11:15:57.015Z,52.97
2023-03-31T11:18:38.388Z,51.04
2023-03-31T11:21:20.323Z,49.05
2023-03-31T11:24:00.123Z,45.78
2023-03-31T11:26:38.352Z,41.84
2023-03-31T11:29:20.466Z,39.78
2023-03-31T11:31:54.305Z,40.03
2023-03-31T11:34:48.891Z,43.55
2023-03-31T11:37:50.721Z,44.54
2023-03-31T11:40:39.570Z,47.68
2023-03-31T11:43:13.262Z,50.74
2023-03-31T11:45:45.963Z,52.99
2023-03-31T11:48:22.218Z,70.73
2023-03-31T11:50:50.752Z,76.99
2023-03-31T11:53:20.994Z,74.25
2023-03-31T11:55:54.247Z,73.17
2023-03-31T11:58:28.470Z,73.75
2023-03-31T12:01:03.260Z,73.06
2023-03-31T12:03:38.162Z,73.41
2023-03-31T12:06:17.285Z,73.27
2023-03-31T12:08:52.376Z,73.63
2023-03-31T12:11:29.211Z,74.58
2023-03-31T12:14:02.051Z,73.67
2023-03-31T12:16:38.723Z,72.61
2023-03-31T12:19:12.859Z,72.07
2023-03-31T12:21:45.354Z,71.92
2023-03-31T12:24:15.207Z,69.58
2023-03-31T12:26:53.464Z,67.74
2023-03-31T12:29:28.072Z,63.06
2023-03-31T12:31:58.766Z,64.31
2023-03-31T12:34:28.795Z,63.43
2023-03-31T12:37:10.704Z,63.25
2023-03-31T12:39:48.454Z,63.20
2023-03-31T12:42:40.661Z,58.35
2023-03-31T12:45:17.555Z,59.22
2023-03-31T12:48:07.502Z,59.62
2023-03-31T12:50:52.757Z,60.24
2023-03-31T12:53:32.728Z,60.73
2023-03-31T12:56:01.055Z,59.47
2023-03-31T12:58:44.865Z,59.67
2023-03-31T13:01:18.581Z,59.82
2023-03-31T13:03:54.287Z,59.84
2023-03-31T13:06:54.057Z,61.19
2023-03-31T13:09:57.270Z,61.85
2023-03-31T13:12:28.219Z,63.76
2023-03-31T13:15:00.299Z,62.07
2023-03-31T13:17:32.268Z,62.74
2023-03-31T13:20:25.622Z,63.13
2023-03-31T13:23:02.231Z,63.03
2023-03-31T13:25:44.781Z,62.82
2023-03-31T13:28:28.058Z,63.65
2023-03-31T13:31:01.907Z,63.84
2023-03-31T13:33:41.501Z,62.78
2023-03-31T13:36:45.561Z,62.72
2023-03-31T13:39:45.930Z,59.92
2023-03-31T13:42:34.095Z,54.48
2023-03-31T13:45:20.021Z,55.98
2023-03-31T13:48:09.097Z,58.28
2023-03-31T13:50:47.236Z,60.92
2023-03-31T13:53:30.397Z,62.60
2023-03-31T13:56:14.256Z,62.76
2023-03-31T13:59:15.683Z,62.29
2023-03-31T14:01:57.683Z,61.65
2023-03-31T14:04:57.093Z,61.17
2023-03-31T14:07:33.803Z,57.91
2023-03-31T14:10:02.967Z,55.78
2023-03-31T14:12:35.472Z,56.17
2023-03-31T14:15:05.734Z,56.41
2023-03-31T14:17:37.942Z,56.48
2023-03-31T14:20:28.651Z,54.45
2023-03-31T14:23:06.669Z,54.69
2023-03-31T14:25:47.373Z,55.47
2023-03-31T14:28:34.765Z,55.03
2023-03-31T14:31:20.419Z,58.51
2023-03-31T14:34:04.459Z,58.10
2023-03-31T14:36:41.792Z,54.08
2023-03-31T14:39:13.297Z,47.77
2023-03-31T14:41:41.665Z,45.05
2023-03-31T14:44:15.940Z,45.96
2023-03-31T14:46:43.894Z,47.13
2023-03-31T14:49:22.228Z,47.27
2023-03-31T14:51:54.066Z,49.21
2023-03-31T14:54:22.883Z,50.00
2023-03-31T14:56:55.380Z,50.91
2023-03-31T14:59:29.001Z,50.99
2023-03-31T15:01:59.261Z,51.22
2023-03-31T15:04:41.370Z,51.12
2023-03-31T15:07:12.288Z,49.75
2023-03-31T15:09:41.086Z,48.96
2023-03-31T15:12:12.630Z,49.90
2023-03-31T15:14:45.970Z,49.07
2023-03-31T15:17:20.464Z,47.65
2023-03-31T15:19:53.637Z,47.80
2023-03-31T15:22:24.489Z,48.82
2023-03-31T15:24:52.700Z,49.79
2023-03-31T15:27:36.907Z,52.25
2023-03-31T15:30:08.209Z,52.07
2023-03-31T15:32:37.914Z,53.65
2023-03-31T15:35:20.904Z,52.79
2023-03-31T15:37:53.174Z,52.35
2023-03-31T15:40:24.137Z,52.58
2023-03-31T15:43:06.923Z,54.66
2023-03-31T15:45:51.236Z,54.45
2023-03-31T15:48:25.008Z,54.49
2023-03-31T15:50:53.529Z,57.74
2023-03-31T15:53:32.368Z,61.06
2023-03-31T15:56:01.875Z,63.02
2023-03-31T15:59:04.388Z,65.75
2023-03-31T16:01:34.436Z,67.70
2023-03-31T16:04:07.759Z,70.56
2023-03-31T16:06:45.498Z,70.62
2023-03-31T16:09:18.062Z,70.49
2023-03-31T16:11:50.491Z,70.62
2023-03-31T16:14:23.684Z,69.79
2023-03-31T16:16:55.646Z,69.81
2023-03-31T16:19:27.434Z,70.46
2023-03-31T16:21:59.483Z,72.58
2023-03-31T16:24:34.281Z,73.86
2023-03-31T16:27:06.391Z,74.76
2023-03-31T16:29:35.898Z,72.41
2023-03-31T16:32:13.397Z,72.22
2023-03-31T16:34:57.100Z,69.26
2023-03-31T16:37:25.428Z,69.95
2023-03-31T16:39:55.690Z,68.50
2023-03-31T16:42:23.812Z,68.58
2023-03-31T16:45:09.497Z,68.38
2023-03-31T16:47:41.570Z,67.21
2023-03-31T16:50:12.299Z,67.51
2023-03-31T16:52:40.269Z,66.31
2023-03-31T16:55:10.521Z,64.60
2023-03-31T16:57:38.415Z,64.76
2023-03-31T17:00:07.483Z,65.01
2023-03-31T17:02:36.170Z,64.29
2023-03-31T17:05:12.469Z,65.56
2023-03-31T17:07:41.263Z,65.94
2023-03-31T17:10:12.694Z,66.67
2023-03-31T17:12:40.656Z,66.10
2023-03-31T17:15:09.831Z,66.12
2023-03-31T17:17:37.865Z,66.20
2023-03-31T17:20:06.854Z,66.02
2023-03-31T17:22:34.904Z,65.61
2023-03-31T17:25:03.220Z,66.12
2023-03-31T17:27:32.751Z,66.11
2023-03-31T17:30:00.982Z,65.69
2023-03-31T17:32:28.989Z,65.94
2023-03-31T17:34:56.983Z,65.63
2023-03-31T17:37:24.937Z,65.46
2023-03-31T17:39:52.845Z,65.57
2023-03-31T17:42:20.744Z,64.73
2023-03-31T17:44:51.755Z,64.35
2023-03-31T17:47:20.434Z,65.89
2023-03-31T17:49:48.311Z,64.59
2023-03-31T17:52:16.234Z,65.36
2023-03-31T17:54:44.567Z,66.28
2023-03-31T17:57:12.401Z,66.21
2023-03-31T17:59:40.378Z,66.13
2023-03-31T18:02:12.983Z,67.33
2023-03-31T18:04:40.932Z,66.54
2023-03-31T18:07:09.049Z,67.83
2023-03-31T18:09:36.932Z,66.99
2023-03-31T18:12:05.067Z,68.43
2023-03-31T18:14:33.524Z,68.77
2023-03-31T18:17:01.776Z,70.03
2023-03-31T18:19:31.893Z,70.68
2023-03-31T18:21:59.723Z,70.73
2023-03-31T18:24:27.694Z,72.37
2023-03-31T18:26:55.548Z,74.56
2023-03-31T18:29:23.434Z,74.64
2023-03-31T18:31:51.391Z,75.90
2023-03-31T18:34:19.611Z,75.77
2023-03-31T18:36:48.923Z,74.88
2023-03-31T18:39:16.953Z,74.39
2023-03-31T18:41:48.625Z,74.80
2023-03-31T18:44:17.591Z,75.02
2023-03-31T18:46:46.503Z,74.30
2023-03-31T18:49:15.358Z,74.75
2023-03-31T18:51:43.247Z,73.95
2023-03-31T18:54:12.843Z,74.22
2023-03-31T18:56:41.341Z,74.14
2023-03-31T18:59:09.427Z,75.40
2023-03-31T19:01:40.117Z,75.23
2023-03-31T19:04:08.339Z,74.99
2023-03-31T19:06:36.266Z,75.53
2023-03-31T19:09:04.892Z,75.32
2023-03-31T19:11:34.149Z,75.96
2023-03-31T19:14:02.657Z,76.34
2023-03-31T19:16:30.756Z,76.05
2023-03-31T19:18:59.204Z,75.59
2023-03-31T19:21:27.120Z,76.10
2023-03-31T19:23:55.059Z,76.29
2023-03-31T19:26:23.303Z,75.46
2023-03-31T19:28:52.651Z,75.96
2023-03-31T19:31:20.956Z,76.39
2023-03-31T19:33:48.959Z,77.01
2023-03-31T19:36:17.016Z,76.67
2023-03-31T19:38:45.171Z,76.44
2023-03-31T19:41:13.061Z,76.10
2023-03-31T19:43:41.055Z,75.44
2023-03-31T19:46:10.502Z,74.81
2023-03-31T19:48:38.416Z,74.77
2023-03-31T19:51:08.497Z,76.13
2023-03-31T19:53:38.314Z,74.55
2023-03-31T19:56:08.162Z,73.83
2023-03-31T19:58:37.122Z,75.40
2023-03-31T20:01:06.428Z,74.22
2023-03-31T20:03:36.094Z,75.05
2023-03-31T20:06:06.979Z,75.42
2023-03-31T20:08:35.023Z,74.25
2023-03-31T20:11:03.973Z,73.71
2023-03-31T20:13:32.666Z,73.57
2023-03-31T20:16:01.886Z,72.45
2023-03-31T20:18:30.114Z,72.16
2023-03-31T20:21:07.433Z,72.28
2023-03-31T20:23:37.948Z,71.89
2023-03-31T20:26:07.831Z,72.17
2023-03-31T20:28:37.948Z,73.61
2023-03-31T20:31:10.401Z,73.40
2023-03-31T20:33:38.693Z,73.23
2023-03-31T20:36:10.906Z,73.86
2023-03-31T20:38:40.153Z,74.10
2023-03-31T20:41:08.728Z,74.68
2023-03-31T20:43:37.513Z,75.53
2023-03-31T20:46:07.723Z,74.71
2023-03-31T20:48:38.564Z,74.13
2023-03-31T20:51:09.581Z,74.40
2023-03-31T20:53:41.972Z,75.90
2023-03-31T20:56:10.293Z,76.41
2023-03-31T20:58:38.362Z,76.63
2023-03-31T21:01:06.695Z,76.05
2023-03-31T21:03:34.632Z,77.14
2023-03-31T21:06:04.005Z,77.65
2023-03-31T21:08:33.834Z,77.37
2023-03-31T21:11:02.042Z,77.83
2023-03-31T21:13:31.254Z,77.82
2023-03-31T21:16:00.398Z,79.25
2023-03-31T21:18:30.078Z,79.21
2023-03-31T21:20:59.863Z,78.46
2023-03-31T21:23:29.019Z,77.65
2023-03-31T21:25:59.848Z,78.22
2023-03-31T21:28:30.919Z,78.76
2023-03-31T21:31:03.186Z,79.06
2023-03-31T21:33:32.836Z,78.86
2023-03-31T21:36:01.283Z,78.13
2023-03-31T21:38:29.238Z,78.63
2023-03-31T21:40:58.682Z,78.79
2023-03-31T21:43:27.465Z,78.20
2023-03-31T21:45:59.208Z,78.40
2023-03-31T21:48:27.509Z,77.72
2023-03-31T21:50:56.208Z,77.13
2023-03-31T21:53:24.419Z,76.29
2023-03-31T21:55:55.391Z,77.58
2023-03-31T21:58:25.237Z,78.12
2023-03-31T22:00:53.653Z,77.63
2023-03-31T22:03:27.788Z,77.82
2023-03-31T22:05:56.151Z,77.05
2023-03-31T22:08:24.243Z,76.79
2023-03-31T22:10:53.105Z,78.40
2023-03-31T22:13:22.579Z,77.90
2023-03-31T22:15:51.852Z,77.50
2023-03-31T22:18:20.115Z,77.20
2023-03-31T22:20:49.341Z,76.94
2023-03-31T22:23:17.452Z,76.13
2023-03-31T22:25:45.529Z,76.32
2023-03-31T22:28:14.238Z,75.55
2023-03-31T22:30:42.734Z,75.43
2023-03-31T22:33:12.158Z,76.16
2023-03-31T22:35:40.369Z,76.08
2023-03-31T22:38:08.752Z,76.51
2023-03-31T22:40:37.105Z,76.03
2023-03-31T22:43:05.041Z,76.87
2023-03-31T22:45:33.222Z,76.52
2023-03-31T22:48:01.373Z,75.70
2023-03-31T22:50:31.113Z,76.31
2023-03-31T22:52:58.920Z,75.64
2023-03-31T22:55:26.879Z,76.76
2023-03-31T22:57:54.734Z,75.47
2023-03-31T23:00:22.595Z,74.62
2023-03-31T23:02:50.696Z,74.68
2023-03-31T23:05:18.788Z,74.16
2023-03-31T23:07:48.066Z,73.29
2023-03-31T23:10:16.104Z,73.18
2023-03-31T23:12:44.193Z,73.02
2023-03-31T23:15:12.888Z,73.63
2023-03-31T23:17:40.875Z,73.87
2023-03-31T23:20:09.635Z,73.11
2023-03-31T23:22:37.613Z,73.06
2023-03-31T23:25:07.634Z,72.97
2023-03-31T23:27:35.578Z,72.52
2023-03-31T23:30:03.938Z,73.72
2023-03-31T23:32:31.756Z,72.88
2023-03-31T23:34:59.628Z,73.84
2023-03-31T23:37:27.561Z,73.93
2023-03-31T23:39:55.492Z,73.47
2023-03-31T23:42:24.646Z,74.75
2023-03-31T23:44:52.518Z,74.75
2023-03-31T23:47:20.516Z,76.00
2023-03-31T23:49:48.365Z,76.22
2023-03-31T23:52:16.753Z,77.14
2023-03-31T23:54:44.571Z,76.73
2023-03-31T23:57:13.726Z,76.52
2023-03-31T23:59:43.058Z,76.29
